createdAt,value
2023-02-14T00:01:41.550Z,78.54
2023-02-14T00:04:09.930Z,78.86
2023-02-14T00:06:39.081Z,78.76
2023-02-14T00:09:11.468Z,78.61
2023-02-14T00:11:40.216Z,78.69
2023-02-14T00:14:27.214Z,78.79
2023-02-14T00:16:55.867Z,78.81
2023-02-14T00:19:24.536Z,78.92
2023-02-14T00:21:52.902Z,78.78
2023-02-14T00:24:24.430Z,78.64
2023-02-14T00:26:53.579Z,78.52
2023-02-14T00:29:25.636Z,78.28
2023-02-14T00:31:53.888Z,78.20
2023-02-14T00:34:22.676Z,78.23
2023-02-14T00:36:51.223Z,78.13
2023-02-14T00:39:19.855Z,78.11
2023-02-14T00:41:48.089Z,78.00
2023-02-14T00:44:18.372Z,78.13
2023-02-14T00:46:46.751Z,78.21
2023-02-14T00:49:14.954Z,78.12
2023-02-14T00:51:43.134Z,78.02
2023-02-14T00:54:11.589Z,77.97
2023-02-14T00:56:39.701Z,78.07
2023-02-14T00:59:10.549Z,78.02
2023-02-14T01:01:39.369Z,77.95
2023-02-14T01:04:08.013Z,77.92
2023-02-14T01:06:36.346Z,77.98
2023-02-14T01:09:04.984Z,78.00
2023-02-14T01:11:34.734Z,78.00
2023-02-14T01:14:03.123Z,77.97
2023-02-14T01:16:31.695Z,78.00
2023-02-14T01:19:01.265Z,77.96
2023-02-14T01:21:33.123Z,77.91
2023-02-14T01:24:04.351Z,77.95
2023-02-14T01:26:33.435Z,77.94
2023-02-14T01:29:04.779Z,78.03
2023-02-14T01:31:34.860Z,78.10
2023-02-14T01:34:03.717Z,78.19
2023-02-14T01:36:38.801Z,78.21
2023-02-14T01:39:12.673Z,78.29
2023-02-14T01:41:43.573Z,78.34
2023-02-14T01:44:14.871Z,78.52
2023-02-14T01:46:45.203Z,78.73
2023-02-14T01:49:21.703Z,78.71
2023-02-14T01:52:06.866Z,78.67
2023-02-14T01:54:40.444Z,78.61
2023-02-14T01:57:12.661Z,78.71
2023-02-14T01:59:49.750Z,78.69
2023-02-14T02:02:23.719Z,78.93
2023-02-14T02:04:56.077Z,78.98
2023-02-14T02:07:29.734Z,78.96
2023-02-14T02:10:03.172Z,78.97
2023-02-14T02:12:32.865Z,78.97
2023-02-14T02:15:03.607Z,78.92
2023-02-14T02:17:46.812Z,78.83
2023-02-14T02:20:18.337Z,78.73
2023-02-14T02:23:12.530Z,78.61
2023-02-14T02:26:37.628Z,78.63
2023-02-14T02:29:21.493Z,78.51
2023-02-14T02:31:59.745Z,78.35
2023-02-14T02:34:55.476Z,78.29
2023-02-14T02:38:11.554Z,78.81
2023-02-14T02:40:51.889Z,79.08
2023-02-14T02:43:45.471Z,79.08
2023-02-14T02:46:44.466Z,78.97
2023-02-14T02:49:45.220Z,79.08
2023-02-14T02:52:57.938Z,79.17
2023-02-14T02:55:55.280Z,79.11
2023-02-14T02:58:27.048Z,79.13
2023-02-14T03:00:57.425Z,79.18
2023-02-14T03:03:47.082Z,79.19
2023-02-14T03:06:15.287Z,79.22
2023-02-14T03:08:43.399Z,79.32
2023-02-14T03:11:13.446Z,79.32
2023-02-14T03:13:54.771Z,79.41
2023-02-14T03:16:35.826Z,79.50
2023-02-14T03:19:21.924Z,79.37
2023-02-14T03:22:05.331Z,79.29
2023-02-14T03:24:45.008Z,79.21
2023-02-14T03:27:25.917Z,79.24
2023-02-14T03:30:17.538Z,79.27
2023-02-14T03:32:57.752Z,79.17
2023-02-14T03:35:44.259Z,79.29
2023-02-14T03:38:38.259Z,79.44
2023-02-14T03:41:12.873Z,79.45
2023-02-14T03:43:48.918Z,79.26
2023-02-14T03:46:28.815Z,79.22
2023-02-14T03:49:01.990Z,79.20
2023-02-14T03:51:34.409Z,79.07
2023-02-14T03:54:06.928Z,79.00
2023-02-14T03:56:40.625Z,78.92
2023-02-14T03:59:22.067Z,78.85
2023-02-14T04:02:20.141Z,78.86
2023-02-14T04:04:50.980Z,78.80
2023-02-14T04:07:21.791Z,78.70
2023-02-14T04:09:50.749Z,78.52
2023-02-14T04:12:32.402Z,78.42
2023-02-14T04:15:06.362Z,78.34
2023-02-14T04:17:53.448Z,78.25
2023-02-14T04:20:22.123Z,78.24
2023-02-14T04:22:51.835Z,78.31
2023-02-14T04:25:21.975Z,78.42
2023-02-14T04:27:50.222Z,78.34
2023-02-14T04:30:20.966Z,78.17
2023-02-14T04:32:50.235Z,78.09
2023-02-14T04:35:18.480Z,77.90
2023-02-14T04:37:46.809Z,77.86
2023-02-14T04:40:17.412Z,77.73
2023-02-14T04:42:46.249Z,77.68
2023-02-14T04:45:15.021Z,77.65
2023-02-14T04:47:43.184Z,77.72
2023-02-14T04:50:11.618Z,77.72
2023-02-14T04:52:40.690Z,77.67
2023-02-14T04:55:09.791Z,77.63
2023-02-14T04:57:37.957Z,77.69
2023-02-14T05:00:07.214Z,77.70
2023-02-14T05:02:35.529Z,77.67
2023-02-14T05:05:03.867Z,77.64
2023-02-14T05:07:32.101Z,77.74
2023-02-14T05:10:00.379Z,77.78
2023-02-14T05:12:28.543Z,77.75
2023-02-14T05:14:57.966Z,77.87
2023-02-14T05:17:26.205Z,78.25
2023-02-14T05:19:54.306Z,78.18
2023-02-14T05:22:22.562Z,78.15
2023-02-14T05:24:50.746Z,77.98
2023-02-14T05:27:18.869Z,77.84
2023-02-14T05:29:47.038Z,77.69
2023-02-14T05:32:15.429Z,77.46
2023-02-14T05:34:43.922Z,77.17
2023-02-14T05:37:12.112Z,77.02
2023-02-14T05:39:40.221Z,76.94
2023-02-14T05:44:35.671Z,76.57
2023-02-14T05:47:04.189Z,76.42
2023-02-14T05:49:32.443Z,76.24
2023-02-14T05:52:00.693Z,75.94
2023-02-14T05:54:28.951Z,75.69
2023-02-14T05:56:57.644Z,75.59
2023-02-14T05:59:28.759Z,75.56
2023-02-14T06:02:04.385Z,75.53
2023-02-14T06:04:32.782Z,75.34
2023-02-14T06:07:01.140Z,75.23
2023-02-14T06:09:29.346Z,75.19
2023-02-14T06:11:59.067Z,75.09
2023-02-14T06:14:27.702Z,74.78
2023-02-14T06:16:55.873Z,73.80
2023-02-14T06:19:24.094Z,73.67
2023-02-14T06:21:52.238Z,73.37
2023-02-14T06:24:20.542Z,73.16
2023-02-14T06:26:48.748Z,73.01
2023-02-14T06:29:17.689Z,73.09
2023-02-14T06:31:46.135Z,73.05
2023-02-14T06:34:16.993Z,73.02
2023-02-14T06:36:45.400Z,72.77
2023-02-14T06:39:13.712Z,72.92
2023-02-14T06:41:41.930Z,73.03
2023-02-14T06:44:10.645Z,73.03
2023-02-14T06:46:38.867Z,73.09
2023-02-14T06:49:07.669Z,73.18
2023-02-14T06:51:37.148Z,73.19
2023-02-14T06:54:08.606Z,73.17
2023-02-14T06:56:36.810Z,73.15
2023-02-14T06:59:05.929Z,73.07
2023-02-14T07:01:34.480Z,73.11
2023-02-14T07:04:02.672Z,73.22
2023-02-14T07:06:31.533Z,73.11
2023-02-14T07:09:07.400Z,73.17
2023-02-14T07:11:35.678Z,73.01
2023-02-14T07:14:04.061Z,73.01
2023-02-14T07:16:32.329Z,73.05
2023-02-14T07:19:00.425Z,73.02
2023-02-14T07:21:28.707Z,73.08
2023-02-14T07:23:57.041Z,73.13
2023-02-14T07:26:25.435Z,73.12
2023-02-14T07:28:53.841Z,72.96
2023-02-14T07:31:23.639Z,72.78
2023-02-14T07:33:53.157Z,72.76
2023-02-14T07:36:21.314Z,72.77
2023-02-14T07:38:49.538Z,72.77
2023-02-14T07:41:17.793Z,72.51
2023-02-14T07:43:45.941Z,72.48
2023-02-14T07:46:14.302Z,72.44
2023-02-14T07:48:42.543Z,72.33
2023-02-14T07:51:11.372Z,72.24
2023-02-14T07:53:39.667Z,72.17
2023-02-14T07:56:07.899Z,72.17
2023-02-14T07:58:36.263Z,72.20
2023-02-14T08:01:04.717Z,72.09
2023-02-14T08:03:33.058Z,71.94
2023-02-14T08:06:01.890Z,71.75
2023-02-14T08:08:32.373Z,71.79
2023-02-14T08:11:01.044Z,71.92
2023-02-14T08:13:29.656Z,71.51
2023-02-14T08:16:12.328Z,71.46
2023-02-14T08:18:42.262Z,71.67
2023-02-14T08:21:11.348Z,71.30
2023-02-14T08:23:39.645Z,71.07
2023-02-14T08:26:08.039Z,71.17
2023-02-14T08:28:36.673Z,71.27
2023-02-14T08:31:05.303Z,71.09
2023-02-14T08:33:33.564Z,71.09
2023-02-14T08:36:02.796Z,71.00
2023-02-14T08:38:30.999Z,70.93
2023-02-14T08:41:05.242Z,70.80
2023-02-14T08:43:38.263Z,70.77
2023-02-14T08:46:06.680Z,70.63
2023-02-14T08:48:39.098Z,70.61
2023-02-14T08:51:08.918Z,70.45
2023-02-14T08:53:37.120Z,70.55
2023-02-14T08:56:07.792Z,70.21
2023-02-14T08:58:38.900Z,70.41
2023-02-14T09:01:15.500Z,70.31
2023-02-14T09:03:44.973Z,70.29
2023-02-14T09:06:17.614Z,70.37
2023-02-14T09:08:47.001Z,70.08
2023-02-14T09:11:22.439Z,69.84
2023-02-14T09:13:58.053Z,69.73
2023-02-14T09:16:26.808Z,69.61
2023-02-14T09:18:56.626Z,69.44
2023-02-14T09:21:27.043Z,69.09
2023-02-14T09:23:55.315Z,68.92
2023-02-14T09:26:23.710Z,68.71
2023-02-14T09:28:52.080Z,68.88
2023-02-14T09:31:22.918Z,68.64
2023-02-14T09:33:52.280Z,67.71
2023-02-14T09:36:39.182Z,67.26
2023-02-14T09:39:07.385Z,66.84
2023-02-14T09:42:00.052Z,66.91
2023-02-14T09:44:44.893Z,66.60
2023-02-14T09:47:34.268Z,66.60
2023-02-14T09:50:14.036Z,66.70
2023-02-14T09:52:51.702Z,66.75
2023-02-14T09:55:20.161Z,66.70
2023-02-14T09:57:57.681Z,66.73
2023-02-14T10:00:34.211Z,66.66
2023-02-14T10:03:28.314Z,66.52
2023-02-14T10:06:02.102Z,66.22
2023-02-14T10:09:05.838Z,65.95
2023-02-14T10:11:35.570Z,65.69
2023-02-14T10:14:24.581Z,65.59
2023-02-14T10:17:05.302Z,65.83
2023-02-14T10:19:56.574Z,65.73
2023-02-14T10:22:44.741Z,65.42
2023-02-14T10:25:22.935Z,65.01
2023-02-14T10:27:59.938Z,64.88
2023-02-14T10:30:40.250Z,64.86
2023-02-14T10:33:11.480Z,64.83
2023-02-14T10:35:50.022Z,64.70
2023-02-14T10:38:37.153Z,64.02
2023-02-14T10:41:24.104Z,63.58
2023-02-14T10:43:58.466Z,63.32
2023-02-14T10:46:53.406Z,63.11
2023-02-14T10:49:51.144Z,63.08
2023-02-14T10:52:44.367Z,62.53
2023-02-14T10:55:32.658Z,62.53
2023-02-14T10:58:05.716Z,62.77
2023-02-14T11:00:39.299Z,62.41
2023-02-14T11:03:11.076Z,61.85
2023-02-14T11:05:52.906Z,61.80
2023-02-14T11:08:25.617Z,61.89
2023-02-14T11:11:19.715Z,61.79
2023-02-14T11:13:48.856Z,60.52
2023-02-14T11:16:34.345Z,60.10
2023-02-14T11:19:36.925Z,60.03
2023-02-14T11:22:06.221Z,59.10
2023-02-14T11:24:37.425Z,58.51
2023-02-14T11:27:21.792Z,57.49
2023-02-14T11:29:53.133Z,57.26
2023-02-14T11:32:28.636Z,56.91
2023-02-14T11:35:07.364Z,56.86
2023-02-14T11:37:44.306Z,55.85
2023-02-14T11:40:35.086Z,55.03
2023-02-14T11:43:14.766Z,55.31
2023-02-14T11:45:45.296Z,54.90
2023-02-14T11:48:36.638Z,54.29
2023-02-14T11:51:42.003Z,54.11
2023-02-14T11:54:26.272Z,52.77
2023-02-14T11:57:01.527Z,53.01
2023-02-14T11:59:34.991Z,52.38
2023-02-14T12:02:21.239Z,51.46
2023-02-14T12:04:52.998Z,51.24
2023-02-14T12:07:28.755Z,51.74
2023-02-14T12:10:18.254Z,51.85
2023-02-14T12:12:49.531Z,51.77
2023-02-14T12:15:27.039Z,51.78
2023-02-14T12:18:25.578Z,51.46
2023-02-14T12:21:18.467Z,51.18
2023-02-14T12:24:14.651Z,49.93
2023-02-14T12:26:57.292Z,49.94
2023-02-14T12:29:33.368Z,49.70
2023-02-14T12:32:20.761Z,49.46
2023-02-14T12:34:50.930Z,48.52
2023-02-14T12:38:03.951Z,48.85
2023-02-14T12:41:06.169Z,49.61
2023-02-14T12:43:43.315Z,50.20
2023-02-14T12:49:37.744Z,51.09
2023-02-14T12:52:41.259Z,51.78
2023-02-14T12:55:18.769Z,52.70
2023-02-14T12:58:02.515Z,53.13
2023-02-14T13:01:21.714Z,53.77
2023-02-14T13:04:29.824Z,54.81
2023-02-14T13:07:38.418Z,55.57
2023-02-14T13:10:18.279Z,56.21
2023-02-14T13:12:58.897Z,56.53
2023-02-14T13:15:55.834Z,56.97
2023-02-14T13:18:51.046Z,57.58
2023-02-14T13:21:25.078Z,58.08
2023-02-14T13:24:06.797Z,58.55
2023-02-14T13:26:41.917Z,58.93
2023-02-14T13:29:23.966Z,59.40
2023-02-14T13:31:57.839Z,59.78
2023-02-14T13:34:39.546Z,60.19
2023-02-14T13:37:13.074Z,60.35
2023-02-14T13:39:46.169Z,60.68
2023-02-14T13:42:47.178Z,60.99
2023-02-14T13:45:37.793Z,61.28
2023-02-14T13:48:09.805Z,61.48
2023-02-14T13:50:53.187Z,61.59
2023-02-14T13:53:43.213Z,61.76
2023-02-14T13:56:17.554Z,62.01
2023-02-14T13:58:55.906Z,62.20
2023-02-14T14:01:34.966Z,62.31
2023-02-14T14:04:31.949Z,62.48
2023-02-14T14:07:03.094Z,62.76
2023-02-14T14:09:45.613Z,62.69
2023-02-14T14:12:29.190Z,62.79
2023-02-14T14:15:06.575Z,63.04
2023-02-14T14:17:50.246Z,63.14
2023-02-14T14:20:21.454Z,63.23
2023-02-14T14:23:02.486Z,63.26
2023-02-14T14:25:41.818Z,63.45
2023-02-14T14:28:25.198Z,63.58
2023-02-14T14:30:54.354Z,63.84
2023-02-14T14:33:28.860Z,64.16
2023-02-14T14:36:08.981Z,64.33
2023-02-14T14:38:53.827Z,64.79
2023-02-14T14:41:31.859Z,64.86
2023-02-14T14:44:00.425Z,64.97
2023-02-14T14:46:28.695Z,65.14
2023-02-14T14:49:05.515Z,65.26
2023-02-14T14:51:35.874Z,65.14
2023-02-14T14:54:04.881Z,65.24
2023-02-14T14:56:38.054Z,65.28
2023-02-14T14:59:18.657Z,65.50
2023-02-14T15:01:47.249Z,65.41
2023-02-14T15:04:36.119Z,65.50
2023-02-14T15:07:33.243Z,65.55
2023-02-14T15:10:02.586Z,65.48
2023-02-14T15:12:49.315Z,65.63
2023-02-14T15:15:19.115Z,65.87
2023-02-14T15:17:48.472Z,66.01
2023-02-14T15:20:24.565Z,66.25
2023-02-14T15:22:54.085Z,66.67
2023-02-14T15:25:29.796Z,67.17
2023-02-14T15:27:58.025Z,67.62
2023-02-14T15:30:30.957Z,67.71
2023-02-14T15:33:02.820Z,67.86
2023-02-14T15:35:45.043Z,68.23
2023-02-14T15:38:14.668Z,68.43
2023-02-14T15:40:43.951Z,68.43
2023-02-14T15:43:18.082Z,68.62
2023-02-14T15:45:52.787Z,68.75
2023-02-14T15:48:29.567Z,68.74
2023-02-14T15:51:00.122Z,68.83
2023-02-14T15:54:07.268Z,69.09
2023-02-14T15:56:48.991Z,69.20
2023-02-14T15:59:26.040Z,69.49
2023-02-14T16:02:00.493Z,69.65
2023-02-14T16:04:32.743Z,70.02
2023-02-14T16:07:22.033Z,70.07
2023-02-14T16:09:51.903Z,70.08
2023-02-14T16:12:34.765Z,70.32
2023-02-14T16:15:15.135Z,70.45
2023-02-14T16:17:44.179Z,70.52
2023-02-14T16:20:47.056Z,70.66
2023-02-14T16:23:15.302Z,71.00
2023-02-14T16:25:44.337Z,71.19
2023-02-14T16:28:13.559Z,71.21
2023-02-14T16:30:42.899Z,71.25
2023-02-14T16:33:33.999Z,71.28
2023-02-14T16:36:10.035Z,71.33
2023-02-14T16:38:44.085Z,71.28
2023-02-14T16:41:29.726Z,71.10
2023-02-14T16:43:57.952Z,70.97
2023-02-14T16:46:30.398Z,71.10
2023-02-14T16:48:58.787Z,71.44
2023-02-14T16:51:43.732Z,71.78
2023-02-14T16:54:17.356Z,72.01
2023-02-14T16:56:57.965Z,72.37
2023-02-14T16:59:26.271Z,72.68
2023-02-14T17:01:54.929Z,72.69
2023-02-14T17:04:23.173Z,73.13
2023-02-14T17:06:59.590Z,73.13
2023-02-14T17:09:32.815Z,73.49
2023-02-14T17:12:05.940Z,73.93
2023-02-14T17:14:47.594Z,74.48
2023-02-14T17:17:16.378Z,74.40
2023-02-14T17:19:44.739Z,74.57
2023-02-14T17:22:14.823Z,75.11
2023-02-14T17:24:43.428Z,75.20
2023-02-14T17:27:11.572Z,75.39
2023-02-14T17:29:39.884Z,75.20
2023-02-14T17:32:12.460Z,75.08
2023-02-14T17:34:50.215Z,74.89
2023-02-14T17:37:19.108Z,74.55
2023-02-14T17:39:47.673Z,74.48
2023-02-14T17:42:16.204Z,74.45
2023-02-14T17:44:44.884Z,74.42
2023-02-14T17:47:15.007Z,74.27
2023-02-14T17:49:47.284Z,74.29
2023-02-14T17:52:17.255Z,74.22
2023-02-14T17:54:45.776Z,74.20
2023-02-14T17:57:21.354Z,74.17
2023-02-14T17:59:49.511Z,74.20
2023-02-14T18:02:17.763Z,74.19
2023-02-14T18:04:48.462Z,74.21
2023-02-14T18:07:16.806Z,74.26
2023-02-14T18:09:44.960Z,74.16
2023-02-14T18:12:15.037Z,74.15
2023-02-14T18:14:43.727Z,74.39
2023-02-14T18:17:13.694Z,74.20
2023-02-14T18:19:42.068Z,74.28
2023-02-14T18:22:10.283Z,74.36
2023-02-14T18:24:38.474Z,74.40
2023-02-14T18:27:06.884Z,74.34
2023-02-14T18:29:36.099Z,74.57
2023-02-14T18:32:11.030Z,74.48
2023-02-14T18:34:39.320Z,74.62
2023-02-14T18:37:16.184Z,74.65
2023-02-14T18:39:46.992Z,74.57
2023-02-14T18:42:18.619Z,74.53
2023-02-14T18:44:47.105Z,74.42
2023-02-14T18:47:15.356Z,74.51
2023-02-14T18:49:43.772Z,74.71
2023-02-14T18:52:12.147Z,74.73
2023-02-14T18:54:40.513Z,74.82
2023-02-14T18:57:08.986Z,74.84
2023-02-14T18:59:37.558Z,74.94
2023-02-14T19:02:06.503Z,74.89
2023-02-14T19:04:35.513Z,74.97
2023-02-14T19:07:04.581Z,74.99
2023-02-14T19:09:40.307Z,75.01
2023-02-14T19:12:09.971Z,74.99
2023-02-14T19:14:38.252Z,75.03
2023-02-14T19:17:06.408Z,75.09
2023-02-14T19:19:34.901Z,75.12
2023-02-14T19:22:03.255Z,75.08
2023-02-14T19:24:31.459Z,75.09
2023-02-14T19:26:59.817Z,75.10
2023-02-14T19:29:31.275Z,75.01
2023-02-14T19:32:00.111Z,75.04
2023-02-14T19:34:30.556Z,75.00
2023-02-14T19:37:08.418Z,75.14
2023-02-14T19:39:39.107Z,75.28
2023-02-14T19:42:07.364Z,75.35
2023-02-14T19:44:35.972Z,75.27
2023-02-14T19:47:19.230Z,75.39
2023-02-14T19:49:55.712Z,75.41
2023-02-14T19:52:26.570Z,75.40
2023-02-14T19:54:58.139Z,75.59
2023-02-14T19:57:26.514Z,75.63
2023-02-14T20:00:08.793Z,75.69
2023-02-14T20:02:45.857Z,75.84
2023-02-14T20:05:16.515Z,76.00
2023-02-14T20:07:44.820Z,76.07
2023-02-14T20:10:13.865Z,75.94
2023-02-14T20:12:42.147Z,76.07
2023-02-14T20:15:11.052Z,76.17
2023-02-14T20:17:39.783Z,76.21
2023-02-14T20:20:21.622Z,76.27
2023-02-14T20:22:50.406Z,76.59
2023-02-14T20:25:18.737Z,76.67
2023-02-14T20:27:47.024Z,76.43
2023-02-14T20:30:20.752Z,76.53
2023-02-14T20:32:55.293Z,76.64
2023-02-14T20:35:26.697Z,76.62
2023-02-14T20:37:55.113Z,76.77
2023-02-14T20:40:23.732Z,77.08
2023-02-14T20:42:52.205Z,77.02
2023-02-14T20:45:20.568Z,77.03
2023-02-14T20:47:49.135Z,77.16
2023-02-14T20:50:17.432Z,77.38
2023-02-14T20:52:46.248Z,77.72
2023-02-14T20:55:14.430Z,77.82
2023-02-14T20:57:42.636Z,77.75
2023-02-14T21:00:11.269Z,77.70
2023-02-14T21:02:39.819Z,78.07
2023-02-14T21:05:08.480Z,78.11
2023-02-14T21:07:36.769Z,78.07
2023-02-14T21:10:05.900Z,78.81
2023-02-14T21:12:34.276Z,79.19
2023-02-14T21:15:02.495Z,79.20
2023-02-14T21:17:30.659Z,79.42
2023-02-14T21:19:58.970Z,79.53
2023-02-14T21:22:27.347Z,79.65
2023-02-14T21:24:55.487Z,79.92
2023-02-14T21:27:32.495Z,80.17
2023-02-14T21:30:00.723Z,80.45
2023-02-14T21:32:29.403Z,80.33
2023-02-14T21:34:57.597Z,80.42
2023-02-14T21:37:27.058Z,80.26
2023-02-14T21:40:01.460Z,80.59
2023-02-14T21:42:29.872Z,81.04
2023-02-14T21:45:16.559Z,80.86
2023-02-14T21:48:07.245Z,81.10
2023-02-14T21:50:38.677Z,81.10
2023-02-14T21:53:07.742Z,81.16
2023-02-14T21:55:35.988Z,81.36
2023-02-14T21:58:04.448Z,81.42
2023-02-14T22:00:32.634Z,81.46
2023-02-14T22:03:01.967Z,81.65
2023-02-14T22:05:30.208Z,81.66
2023-02-14T22:07:58.615Z,81.75
2023-02-14T22:10:26.767Z,81.84
2023-02-14T22:12:55.124Z,81.69
2023-02-14T22:15:23.307Z,81.57
2023-02-14T22:17:51.658Z,81.66
2023-02-14T22:20:20.099Z,81.40
2023-02-14T22:22:48.311Z,81.20
2023-02-14T22:25:16.649Z,81.19
2023-02-14T22:27:45.043Z,81.50
2023-02-14T22:30:13.552Z,81.27
2023-02-14T22:32:42.687Z,81.15
2023-02-14T22:35:10.825Z,81.32
2023-02-14T22:37:39.043Z,81.35
2023-02-14T22:40:08.663Z,81.36
2023-02-14T22:42:36.759Z,81.51
2023-02-14T22:45:05.468Z,81.54
2023-02-14T22:47:33.735Z,81.56
2023-02-14T22:50:01.853Z,81.84
2023-02-14T22:52:29.970Z,81.72
2023-02-14T22:54:58.206Z,81.64
2023-02-14T22:57:26.354Z,81.65
2023-02-14T22:59:54.564Z,81.64
2023-02-14T23:02:22.885Z,81.73
2023-02-14T23:04:51.152Z,81.81
2023-02-14T23:07:19.356Z,82.03
2023-02-14T23:09:50.292Z,81.91
2023-02-14T23:12:36.989Z,81.87
2023-02-14T23:15:34.544Z,82.32
2023-02-14T23:18:21.480Z,82.10
2023-02-14T23:21:11.109Z,82.10
2023-02-14T23:23:39.497Z,82.09
2023-02-14T23:26:07.759Z,82.21
2023-02-14T23:28:35.957Z,82.32
2023-02-14T23:31:04.313Z,82.30
2023-02-14T23:33:32.730Z,82.50
2023-02-14T23:36:04.123Z,82.36
2023-02-14T23:38:32.370Z,82.35
2023-02-14T23:41:27.637Z,82.37
2023-02-14T23:43:55.810Z,82.45
2023-02-14T23:46:24.036Z,82.59
2023-02-14T23:48:52.248Z,82.50
2023-02-14T23:51:20.528Z,82.61
2023-02-14T23:53:49.009Z,82.66
2023-02-14T23:56:17.234Z,82.77
2023-02-14T23:58:45.470Z,82.72
